METAR Data
IDs: Format: Raw Decoded Include TAF

Data at: 0226 UTC 25 Feb 2021

ENGM 250220Z 19008KT 0750 R19R/1200U R01R/0500N R19L/0550N R01L/1200D FG VV002 03/03 Q1010